Bucksport, South Carolina
Current Conditions -  °F | °C
As of 9:15 AM on Monday 22 Dec 2014 (Local Time) from KHYW Reporting Station
Overcast Overcast  
Wind Chill: 38°   Ceiling: 700
Heat Index: 43°   Visibility: 10mi
Dew Point: 43°   Wind: 8mph
Humidity: 100%   Direction: 30°NNE
Pressure: 30.1"   Gusts: NA
Location:  33.736°N, 79.1183°W
Report Text: KHYW 221415Z AUTO 03007KT 10SM OVC007 06/06 A3010 RMK AO2
Loading
Personal Weather Stations






























Interactive Weather Map New forecast layout! Learn more

10-Day Weather Forecast

Advertisements
Track Severe Weather on mobile